Time;durP1;ratioP1;P1;durP2;ratioP2;P2;SDS_P1;SDS_P2;PMS_P1;PMS_P2;Temp;Humidity;BMP_temperature;BMP_pressure;BME280_temperature;BME280_humidity;BME280_pressure;Samples;Min_cycle;Max_cycle;Signal;HPM_P1;HPM_P2
2022/05/18 04:03:11;;;;;;;2.77;2.57;;;14.00;99.90;;;;;;6135257;22;20498;-64
2022/05/18 04:05:38;;;;;;;3.90;3.50;;;14.00;99.90;;;;;;4974699;28;20449;-66
2022/05/18 04:08:05;;;;;;;3.07;2.87;;;14.00;99.90;;;;;;4976485;28;20389;-63
2022/05/18 04:10:31;;;;;;;5.07;3.20;;;14.10;99.90;;;;;;4958450;28;20480;-63
2022/05/18 04:12:57;;;;;;;2.90;2.70;;;14.10;99.90;;;;;;4956623;29;20473;-64
2022/05/18 04:15:23;;;;;;;3.77;3.27;;;14.10;99.90;;;;;;4957133;29;20391;-63
2022/05/18 04:17:49;;;;;;;3.53;3.23;;;14.20;99.90;;;;;;4956979;28;20187;-64
2022/05/18 04:20:21;;;;;;;4.87;4.30;;;14.20;99.90;;;;;;4956907;29;20386;-64
2022/05/18 04:22:47;;;;;;;3.23;2.93;;;14.20;99.90;;;;;;4956620;29;20398;-63
2022/05/18 04:25:17;;;;;;;3.07;2.87;;;14.30;99.90;;;;;;4970603;28;20551;-64
2022/05/18 04:27:43;;;;;;;3.57;3.10;;;14.40;99.90;;;;;;4959703;28;20463;-63
2022/05/18 04:30:10;;;;;;;3.47;3.27;;;14.60;99.90;;;;;;4956759;29;20394;-63
2022/05/18 04:32:38;;;;;;;3.10;2.90;;;14.90;99.90;;;;;;4955847;29;20855;-65
2022/05/18 04:35:05;;;;;;;3.70;3.50;;;15.20;99.90;;;;;;4955939;29;20497;-65
2022/05/18 04:37:31;;;;;;;4.90;4.50;;;15.50;99.90;;;;;;4964033;28;20431;-64
2022/05/18 04:39:56;;;;;;;5.00;4.57;;;15.80;99.90;;;;;;4975448;28;20390;-66
2022/05/18 04:42:22;;;;;;;7.53;4.40;;;15.90;99.90;;;;;;4973534;28;20183;-64
2022/05/18 04:44:50;;;;;;;5.33;4.93;;;16.10;99.90;;;;;;4957838;28;20199;-64
2022/05/18 04:47:16;;;;;;;4.50;4.10;;;16.20;99.90;;;;;;4975534;28;20393;-65
2022/05/18 04:49:42;;;;;;;4.70;4.03;;;16.30;99.90;;;;;;4975938;28;20390;-65
2022/05/18 04:52:08;;;;;;;3.73;3.43;;;16.50;99.90;;;;;;4968184;28;20428;-65
2022/05/18 04:54:35;;;;;;;9.20;3.97;;;16.70;99.90;;;;;;4956310;28;20200;-65
2022/05/18 04:57:00;;;;;;;3.73;3.37;;;16.80;99.90;;;;;;4956005;29;20389;-65
2022/05/18 04:59:26;;;;;;;3.33;3.03;;;16.80;99.90;;;;;;4956371;29;20427;-64
2022/05/18 05:01:52;;;;;;;3.13;2.90;;;17.00;99.90;;;;;;4956211;29;20942;-64
2022/05/18 05:04:17;;;;;;;3.40;2.90;;;17.30;99.90;;;;;;4955624;29;20665;-62
2022/05/18 05:06:46;;;;;;;4.60;3.23;;;17.40;99.90;;;;;;4961112;28;20194;-65
2022/05/18 05:09:12;;;;;;;5.17;3.40;;;17.40;99.90;;;;;;4975462;28;20537;-64
2022/05/18 05:11:38;;;;;;;6.10;3.47;;;17.60;99.90;;;;;;4973557;28;20457;-66
2022/05/18 05:14:05;;;;;;;3.33;3.00;;;17.60;99.90;;;;;;4955552;29;20814;-64
2022/05/18 05:16:31;;;;;;;3.17;2.80;;;17.80;99.90;;;;;;4955912;29;20429;-63
2022/05/18 05:18:58;;;;;;;2.80;2.60;;;17.90;99.90;;;;;;4955826;29;20411;-65
2022/05/18 05:21:23;;;;;;;3.70;3.07;;;18.00;99.90;;;;;;4956362;29;20910;-64
2022/05/18 05:23:49;;;;;;;2.67;2.47;;;18.00;99.90;;;;;;4955328;29;20437;-63
2022/05/18 05:26:15;;;;;;;3.77;3.27;;;18.00;99.90;;;;;;4955774;28;20165;-63
2022/05/18 05:28:41;;;;;;;3.10;2.90;;;17.90;99.90;;;;;;4967094;28;20222;-62
2022/05/18 05:31:09;;;;;;;5.13;3.20;;;17.80;99.90;;;;;;4969978;28;20394;-64
2022/05/18 05:33:36;;;;;;;3.43;3.23;;;17.70;99.90;;;;;;4966670;28;20441;-65
2022/05/18 05:36:03;;;;;;;3.57;3.27;;;17.70;99.90;;;;;;4957044;28;20421;-64
2022/05/18 05:38:29;;;;;;;3.40;3.00;;;17.70;99.90;;;;;;4971827;28;20414;-65
2022/05/18 05:40:55;;;;;;;3.17;2.97;;;17.70;99.90;;;;;;4962506;28;21069;-63
2022/05/18 05:43:21;;;;;;;3.20;2.90;;;17.80;99.90;;;;;;4973296;28;20500;-64
2022/05/18 05:46:05;;;;;;;6.03;3.30;;;17.90;99.90;;;;;;4972869;28;20400;-64
2022/05/18 05:48:33;;;;;;;3.33;2.90;;;18.00;99.90;;;;;;4974840;28;20526;-63
2022/05/18 05:51:00;;;;;;;3.90;3.60;;;18.00;99.90;;;;;;4973964;28;20481;-64
2022/05/18 05:53:26;;;;;;;3.10;2.80;;;18.00;99.90;;;;;;4973683;28;20553;-64
2022/05/18 05:55:53;;;;;;;3.97;3.30;;;18.10;99.90;;;;;;4974001;28;20382;-64
2022/05/18 05:58:20;;;;;;;2.70;2.50;;;18.20;99.90;;;;;;4974573;28;20385;-64
2022/05/18 06:00:47;;;;;;;3.50;2.83;;;18.30;99.90;;;;;;4974683;28;20423;-64
2022/05/18 06:03:17;;;;;;;2.80;2.60;;;18.30;99.90;;;;;;4956779;28;20440;-64
2022/05/18 06:05:43;;;;;;;2.87;2.67;;;18.40;99.90;;;;;;4962580;28;20783;-64
2022/05/18 06:08:09;;;;;;;3.90;3.57;;;18.40;99.90;;;;;;4955465;28;20404;-64
2022/05/18 06:10:35;;;;;;;4.57;3.87;;;18.50;99.90;;;;;;4954805;29;20502;-64
2022/05/18 06:13:09;;;;;;;3.63;3.33;;;18.60;99.90;;;;;;4954840;29;20905;-63
2022/05/18 06:15:34;;;;;;;3.50;3.30;;;18.80;99.90;;;;;;4960228;28;20845;-63
2022/05/18 06:18:00;;;;;;;3.03;2.60;;;18.90;99.90;;;;;;4970837;28;20596;-64
2022/05/18 06:20:26;;;;;;;3.03;2.73;;;19.00;99.90;;;;;;4973040;28;20184;-64
2022/05/18 06:22:52;;;;;;;2.77;2.63;;;19.20;99.90;;;;;;4963098;28;20191;-64
2022/05/18 06:25:18;;;;;;;6.40;4.13;;;19.10;99.90;;;;;;4962714;28;20411;-63
2022/05/18 06:27:44;;;;;;;4.80;3.50;;;19.20;99.90;;;;;;4963169;28;20205;-63
2022/05/18 06:30:15;;;;;;;3.00;2.80;;;19.30;99.90;;;;;;4963885;28;20426;-63
2022/05/18 06:32:41;;;;;;;3.60;2.70;;;19.40;99.90;;;;;;4962773;28;20196;-64
2022/05/18 06:35:07;;;;;;;3.33;3.03;;;19.50;99.90;;;;;;4963086;28;20445;-63
2022/05/18 06:37:33;;;;;;;3.13;2.83;;;19.70;99.90;;;;;;4962363;28;20486;-63
2022/05/18 06:40:01;;;;;;;2.67;2.47;;;19.80;99.90;;;;;;4959665;28;20753;-64
2022/05/18 06:42:27;;;;;;;3.13;2.90;;;20.00;99.90;;;;;;4961454;28;20918;-64
2022/05/18 06:44:52;;;;;;;4.10;2.73;;;20.30;99.90;;;;;;4966412;28;20473;-64
2022/05/18 06:47:18;;;;;;;3.00;2.80;;;20.50;99.90;;;;;;4961000;28;20177;-66
2022/05/18 06:49:44;;;;;;;2.40;2.17;;;20.70;99.90;;;;;;4957360;29;20184;-64
2022/05/18 06:52:11;;;;;;;3.00;2.70;;;20.80;99.90;;;;;;4957103;28;20213;-63
2022/05/18 06:54:37;;;;;;;3.77;2.67;;;21.00;99.90;;;;;;4957200;29;20432;-63
2022/05/18 06:57:04;;;;;;;4.53;2.13;;;21.00;99.90;;;;;;4961099;28;20423;-63
2022/05/18 06:59:30;;;;;;;2.80;2.60;;;21.00;99.90;;;;;;4975721;28;20469;-63
2022/05/18 07:01:55;;;;;;;2.80;2.60;;;21.10;99.90;;;;;;4969248;28;20508;-62
2022/05/18 07:04:21;;;;;;;2.57;2.37;;;21.20;99.90;;;;;;4959236;28;20422;-62
2022/05/18 07:06:47;;;;;;;2.70;2.50;;;21.30;99.90;;;;;;4965628;28;20279;-63
2022/05/18 07:09:16;;;;;;;4.83;2.97;;;21.40;99.90;;;;;;4976192;28;20474;-62
2022/05/18 07:11:43;;;;;;;2.73;2.53;;;21.50;99.90;;;;;;4969822;28;20290;-63
2022/05/18 07:14:09;;;;;;;3.07;2.67;;;21.50;99.90;;;;;;4974087;28;20418;-63
2022/05/18 07:16:35;;;;;;;3.03;2.83;;;21.60;99.90;;;;;;4972971;28;20395;-62
2022/05/18 07:19:01;;;;;;;2.20;2.00;;;21.80;99.90;;;;;;4956725;29;20408;-62
2022/05/18 07:21:27;;;;;;;2.73;2.53;;;21.90;99.90;;;;;;4957760;28;20210;-63
2022/05/18 07:23:54;;;;;;;2.43;2.23;;;22.10;99.90;;;;;;4975411;28;20420;-63
2022/05/18 07:26:21;;;;;;;4.63;3.00;;;22.30;99.90;;;;;;4958168;28;20752;-63
2022/05/18 07:28:47;;;;;;;2.47;2.20;;;22.60;99.70;;;;;;4969087;28;20952;-63
2022/05/18 07:31:14;;;;;;;2.70;2.50;;;23.00;99.50;;;;;;4975851;28;20485;-63
2022/05/18 07:33:39;;;;;;;2.40;2.20;;;23.30;99.20;;;;;;4957138;28;20446;-63
2022/05/18 07:36:06;;;;;;;2.47;2.27;;;23.60;98.40;;;;;;4969988;28;20807;-63
2022/05/18 07:38:33;;;;;;;2.33;2.10;;;24.00;97.30;;;;;;4956772;28;20181;-63
2022/05/18 07:40:59;;;;;;;2.53;2.33;;;24.60;96.40;;;;;;4969571;28;20787;-63
2022/05/18 07:43:25;;;;;;;2.63;2.43;;;25.10;95.00;;;;;;4969666;28;20852;-63
2022/05/18 07:45:53;;;;;;;3.63;2.53;;;26.00;94.40;;;;;;4963721;28;20435;-63
2022/05/18 07:48:20;;;;;;;2.47;2.07;;;27.10;92.70;;;;;;4956253;29;20224;-63
2022/05/18 07:50:46;;;;;;;2.60;2.30;;;28.20;90.70;;;;;;4966225;28;20450;-64
2022/05/18 07:53:12;;;;;;;1.93;1.83;;;29.70;86.10;;;;;;4962687;28;20964;-63
2022/05/18 07:55:38;;;;;;;2.30;2.20;;;30.80;80.40;;;;;;4974936;28;20531;-64
2022/05/18 07:58:07;;;;;;;2.60;2.40;;;32.10;76.90;;;;;;4974847;28;20442;-64
2022/05/18 08:00:34;;;;;;;2.43;2.23;;;33.00;71.90;;;;;;4972663;28;20490;-65
2022/05/18 08:02:59;;;;;;;2.60;2.40;;;33.80;69.10;;;;;;4974133;28;20428;-64
2022/05/18 08:05:25;;;;;;;2.40;2.30;;;34.60;64.90;;;;;;4975145;28;20956;-64
2022/05/18 08:07:51;;;;;;;2.10;2.00;;;34.80;62.50;;;;;;4958340;28;20669;-64
2022/05/18 08:15:49;;;;;;;2.60;2.40;;;35.20;58.80;;;;;;4974382;28;20415;-65
2022/05/18 08:18:16;;;;;;;2.50;2.40;;;35.50;57.80;;;;;;4973802;28;20407;-64
2022/05/18 08:20:43;;;;;;;2.33;2.23;;;35.80;58.40;;;;;;4973985;28;20412;-66
2022/05/18 08:23:09;;;;;;;2.27;2.13;;;36.50;57.50;;;;;;4973422;28;20988;-67
2022/05/18 08:25:36;;;;;;;2.60;2.40;;;37.20;56.40;;;;;;4973957;28;20419;-68
2022/05/18 08:28:02;;;;;;;2.40;2.30;;;37.50;56.00;;;;;;4949529;28;20529;-65
2022/05/18 08:30:31;;;;;;;2.60;2.43;;;37.70;54.50;;;;;;4966279;28;20424;-67
2022/05/18 08:33:02;;;;;;;2.70;2.50;;;37.70;53.30;;;;;;4967283;28;20968;-67
2022/05/18 08:35:29;;;;;;;3.53;3.23;;;37.90;53.30;;;;;;4974538;28;20423;-62
2022/05/18 08:37:55;;;;;;;2.87;2.77;;;37.80;52.70;;;;;;4959325;28;20448;-63
2022/05/18 08:40:49;;;;;;;2.50;2.40;;;37.80;53.50;;;;;;4955533;29;20541;-64
2022/05/18 08:43:25;;;;;;;2.80;2.63;;;37.90;52.70;;;;;;4968469;28;20495;-64
2022/05/18 08:46:11;;;;;;;2.50;2.40;;;38.30;52.60;;;;;;4954008;28;20443;-63
2022/05/18 08:48:45;;;;;;;2.97;2.70;;;38.90;50.90;;;;;;4955536;29;20424;-63
2022/05/18 08:51:25;;;;;;;3.17;2.90;;;39.10;50.20;;;;;;4953900;28;20555;-63
2022/05/18 08:53:59;;;;;;;2.63;2.53;;;38.90;49.60;;;;;;4965910;28;20610;-63
2022/05/18 08:56:44;;;;;;;3.10;2.73;;;38.70;49.10;;;;;;4972972;28;20408;-63
2022/05/18 08:59:39;;;;;;;2.57;2.47;;;38.60;49.30;;;;;;4974506;28;20408;-62
2022/05/18 09:02:21;;;;;;;2.80;2.63;;;38.70;49.50;;;;;;4954043;28;20525;-63
2022/05/18 09:05:07;;;;;;;2.70;2.60;;;39.00;49.10;;;;;;4975363;28;20542;-62
2022/05/18 09:07:40;;;;;;;2.97;2.77;;;39.70;48.30;;;;;;4960455;28;20463;-63
2022/05/18 09:10:18;;;;;;;2.50;2.40;;;40.20;47.20;;;;;;4973536;28;20424;-63
2022/05/18 09:12:47;;;;;;;4.57;4.17;;;40.50;47.50;;;;;;4974254;28;20485;-63
2022/05/18 09:15:19;;;;;;;3.27;3.07;;;40.50;46.70;;;;;;4972381;28;20443;-62
2022/05/18 09:17:59;;;;;;;2.80;2.70;;;40.40;45.90;;;;;;4960011;28;20472;-61
2022/05/18 09:20:37;;;;;;;2.40;2.30;;;40.30;45.50;;;;;;4970671;28;20515;-61
2022/05/18 09:23:15;;;;;;;3.70;2.90;;;40.10;46.00;;;;;;4974193;28;20984;-62
2022/05/18 09:26:23;;;;;;;3.00;2.80;;;40.40;45.30;;;;;;4965120;28;20467;-60
2022/05/18 09:28:53;;;;;;;2.40;2.30;;;40.40;44.20;;;;;;4970441;28;20455;-61
2022/05/18 09:31:25;;;;;;;2.23;2.13;;;39.60;43.20;;;;;;4962869;28;20425;-60
2022/05/18 09:34:16;;;;;;;3.27;3.07;;;39.00;43.40;;;;;;4965173;28;20531;-60
2022/05/18 09:37:23;;;;;;;2.63;2.53;;;38.60;45.30;;;;;;4968804;28;20491;-62
2022/05/18 09:39:58;;;;;;;2.60;2.50;;;38.80;45.30;;;;;;4969612;28;20435;-62
2022/05/18 09:42:30;;;;;;;3.57;3.27;;;38.90;45.70;;;;;;4956023;28;20470;-62
2022/05/18 09:45:00;;;;;;;2.70;2.50;;;38.80;46.50;;;;;;4957859;28;20503;-61
2022/05/18 09:47:30;;;;;;;3.20;3.00;;;38.20;46.70;;;;;;4966382;28;20424;-62
2022/05/18 09:50:00;;;;;;;2.77;2.60;;;37.90;47.30;;;;;;4972716;28;20407;-62
2022/05/18 09:52:28;;;;;;;2.70;2.50;;;38.10;47.20;;;;;;4972977;28;20416;-61
2022/05/18 09:54:57;;;;;;;2.60;2.50;;;38.60;45.90;;;;;;4956330;28;20790;-61
2022/05/18 09:57:34;;;;;;;2.83;2.67;;;39.00;45.60;;;;;;4973100;28;20446;-63
2022/05/18 10:00:08;;;;;;;3.00;2.80;;;39.00;45.30;;;;;;4973485;28;20431;-61
2022/05/18 10:08:14;;;;;;;2.40;2.30;;;38.80;44.30;;;;;;4954769;29;20416;-62
2022/05/18 10:10:41;;;;;;;2.87;2.70;;;38.30;45.40;;;;;;4953765;29;20416;-63
2022/05/18 10:13:12;;;;;;;2.83;2.63;;;38.50;46.00;;;;;;4963654;28;20428;-62
2022/05/18 10:15:58;;;;;;;2.40;2.23;;;38.40;44.60;;;;;;4971422;28;20451;-61
2022/05/18 10:19:08;;;;;;;2.30;2.20;;;38.70;44.40;;;;;;4939624;29;20416;-63
2022/05/18 10:21:56;;;;;;;2.40;2.23;;;38.60;43.50;;;;;;4913258;28;20456;-62
2022/05/18 10:24:50;;;;;;;2.20;2.10;;;38.50;43.50;;;;;;4972594;28;20440;-62
2022/05/18 10:27:15;;;;;;;2.43;2.30;;;37.70;44.00;;;;;;4975243;28;20439;-61
2022/05/18 10:30:02;;;;;;;2.77;2.57;;;37.00;44.10;;;;;;4977518;28;20917;-61
2022/05/18 10:32:29;;;;;;;2.53;2.33;;;36.70;44.20;;;;;;4969591;28;20192;-61
2022/05/18 10:34:56;;;;;;;2.00;1.90;;;36.10;45.10;;;;;;4977205;28;20527;-61
2022/05/18 10:37:30;;;;;;;2.00;1.80;;;35.90;46.20;;;;;;4976484;28;20435;-61
2022/05/18 10:40:21;;;;;;;2.67;2.23;;;35.40;45.10;;;;;;4976993;28;20466;-63
2022/05/18 10:42:52;;;;;;;1.90;1.80;;;35.00;46.20;;;;;;4974906;28;20538;-62
2022/05/18 10:45:27;;;;;;;2.20;2.10;;;34.30;46.80;;;;;;4977170;28;20494;-63
2022/05/18 10:47:56;;;;;;;2.13;2.03;;;33.70;47.50;;;;;;4976959;28;20503;-62
2022/05/18 10:50:24;;;;;;;2.00;1.90;;;33.50;47.50;;;;;;4976515;28;20390;-62
2022/05/18 10:52:55;;;;;;;3.17;2.83;;;33.60;48.10;;;;;;4976514;28;20875;-62
2022/05/18 10:55:23;;;;;;;2.40;2.03;;;33.60;46.70;;;;;;4976703;28;20436;-63
2022/05/18 10:58:22;;;;;;;1.80;1.70;;;33.70;47.20;;;;;;4963979;28;20510;-63
2022/05/18 11:00:51;;;;;;;2.30;2.10;;;33.70;47.30;;;;;;4957552;29;20474;-63
2022/05/18 11:03:31;;;;;;;2.73;2.10;;;33.60;48.20;;;;;;4964738;28;20463;-63
2022/05/18 11:06:12;;;;;;;3.23;1.97;;;33.50;47.50;;;;;;4976192;28;20414;-61
2022/05/18 11:08:38;;;;;;;6.63;2.20;;;33.30;47.60;;;;;;4976700;28;20924;-62
2022/05/18 11:11:31;;;;;;;1.93;1.80;;;32.70;47.90;;;;;;4975886;28;20408;-62
2022/05/18 11:14:15;;;;;;;1.43;1.33;;;32.10;48.10;;;;;;4976289;28;20196;-62
2022/05/18 11:16:50;;;;;;;1.80;1.70;;;31.10;49.30;;;;;;4976008;28;20512;-62
2022/05/18 11:19:22;;;;;;;2.37;2.27;;;30.30;50.60;;;;;;4976470;28;20547;-62
2022/05/18 11:21:56;;;;;;;1.70;1.60;;;29.80;51.60;;;;;;4975746;28;20430;-63
2022/05/18 11:24:40;;;;;;;2.37;2.20;;;29.50;51.50;;;;;;4976159;28;20435;-62
2022/05/18 11:27:39;;;;;;;1.90;1.80;;;29.00;52.00;;;;;;4974439;28;20431;-63
2022/05/18 11:30:36;;;;;;;1.63;1.53;;;28.80;52.70;;;;;;4913136;29;21013;-63
2022/05/18 11:33:36;;;;;;;1.57;1.47;;;28.60;53.30;;;;;;4957144;28;20405;-62
2022/05/18 11:36:05;;;;;;;1.60;1.50;;;28.50;54.30;;;;;;4976254;28;20745;-63
2022/05/18 11:38:55;;;;;;;2.57;2.00;;;28.40;53.80;;;;;;4976314;28;20488;-62
2022/05/18 11:41:34;;;;;;;1.60;1.50;;;28.40;53.40;;;;;;4975922;28;20953;-63
2022/05/18 11:44:29;;;;;;;1.73;1.57;;;28.30;53.20;;;;;;4975092;28;20440;-63
2022/05/18 11:47:18;;;;;;;2.00;1.80;;;28.20;53.50;;;;;;4946373;28;20389;-64
2022/05/18 11:50:06;;;;;;;2.53;2.30;;;28.00;53.40;;;;;;4957168;28;20393;-62
2022/05/18 11:52:58;;;;;;;1.80;1.70;;;28.00;53.80;;;;;;4958814;28;20774;-63
2022/05/18 11:55:47;;;;;;;1.37;1.33;;;28.00;54.60;;;;;;4965375;28;20403;-62
2022/05/18 11:58:52;;;;;;;2.93;1.57;;;27.90;53.50;;;;;;4970317;28;20728;-63
2022/05/18 12:01:52;;;;;;;4.40;1.33;;;27.80;52.00;;;;;;4966229;28;20570;-63
2022/05/18 12:04:32;;;;;;;1.60;1.40;;;27.80;51.20;;;;;;4955927;28;20532;-63
2022/05/18 12:07:07;;;;;;;1.63;1.53;;;27.80;51.10;;;;;;4958450;28;20437;-60
2022/05/18 12:09:49;;;;;;;1.50;1.40;;;27.80;52.10;;;;;;4956905;28;20396;-61
2022/05/18 12:12:36;;;;;;;1.50;1.40;;;27.80;52.40;;;;;;4959490;28;20433;-60
2022/05/18 12:15:08;;;;;;;2.10;1.90;;;27.80;52.00;;;;;;4975492;28;20433;-61
2022/05/18 12:18:00;;;;;;;1.57;1.47;;;27.80;53.50;;;;;;4975627;28;20434;-60
2022/05/18 12:20:39;;;;;;;1.33;1.33;;;27.80;53.60;;;;;;4975045;28;20486;-60
2022/05/18 12:23:12;;;;;;;1.67;1.47;;;27.80;52.50;;;;;;4974143;28;20427;-60
2022/05/18 12:25:39;;;;;;;1.70;1.60;;;27.80;51.50;;;;;;4974971;28;20460;-60
2022/05/18 12:28:07;;;;;;;1.70;1.60;;;27.70;53.80;;;;;;4974788;28;20433;-62
2022/05/18 12:30:37;;;;;;;1.67;1.57;;;27.80;53.80;;;;;;4974902;28;20420;-61
2022/05/18 12:33:05;;;;;;;2.20;1.40;;;27.90;53.20;;;;;;4974161;28;20438;-60
2022/05/18 12:35:54;;;;;;;1.50;1.40;;;27.80;54.00;;;;;;4976142;28;20423;-61
2022/05/18 12:38:27;;;;;;;1.53;1.43;;;27.80;54.60;;;;;;4976292;28;20482;-61
2022/05/18 12:41:02;;;;;;;1.60;1.50;;;27.80;55.20;;;;;;4976510;28;20425;-61
2022/05/18 12:43:38;;;;;;;1.80;1.70;;;27.90;54.10;;;;;;4975571;28;20464;-61
2022/05/18 12:46:28;;;;;;;2.20;2.10;;;27.80;54.20;;;;;;4974695;28;20439;-61
2022/05/18 12:49:04;;;;;;;1.70;1.60;;;27.80;54.40;;;;;;4975283;28;20778;-59
2022/05/18 12:51:30;;;;;;;1.70;1.60;;;27.80;53.50;;;;;;4975924;28;20811;-60
2022/05/18 12:54:05;;;;;;;1.70;1.60;;;27.80;53.60;;;;;;4957700;28;20534;-59
2022/05/18 12:56:37;;;;;;;1.60;1.50;;;27.80;53.80;;;;;;4976028;28;20403;-60
2022/05/18 12:59:10;;;;;;;1.77;1.67;;;27.90;53.90;;;;;;4973663;28;20420;-58
2022/05/18 13:01:40;;;;;;;1.97;1.83;;;27.80;55.00;;;;;;4974550;28;20404;-61
2022/05/18 13:04:08;;;;;;;2.13;1.93;;;27.80;54.50;;;;;;4974400;28;20810;-60
2022/05/18 13:06:56;;;;;;;2.03;1.87;;;27.80;53.80;;;;;;4974011;28;20778;-58
2022/05/18 13:09:24;;;;;;;2.10;2.00;;;27.80;54.20;;;;;;4974550;28;20420;-60
2022/05/18 13:12:05;;;;;;;1.70;1.60;;;27.90;55.00;;;;;;4974152;28;20434;-61
2022/05/18 13:14:57;;;;;;;1.30;1.30;;;28.00;54.30;;;;;;4972838;28;20430;-60
2022/05/18 13:17:40;;;;;;;5.47;1.50;;;28.00;53.90;;;;;;4974345;28;20429;-60
2022/05/18 13:20:25;;;;;;;1.60;1.50;;;28.10;54.40;;;;;;4974328;28;20394;-61
2022/05/18 13:23:20;;;;;;;1.53;1.50;;;28.10;55.40;;;;;;4974064;28;20495;-59
2022/05/18 13:25:51;;;;;;;1.97;1.87;;;28.10;54.30;;;;;;4973807;28;20428;-60
2022/05/18 13:28:18;;;;;;;1.70;1.60;;;28.10;53.40;;;;;;4969043;28;20479;-60
2022/05/18 13:30:53;;;;;;;1.30;1.30;;;28.10;54.20;;;;;;4967758;28;20471;-60
2022/05/18 13:33:19;;;;;;;1.83;1.70;;;28.00;54.40;;;;;;4974000;28;20434;-58
2022/05/18 13:35:48;;;;;;;1.90;1.80;;;28.00;54.80;;;;;;4974066;28;20412;-60
2022/05/18 13:38:17;;;;;;;1.53;1.40;;;27.90;54.40;;;;;;4973448;28;20631;-59
2022/05/18 13:40:48;;;;;;;2.87;1.70;;;27.90;53.40;;;;;;4974154;28;20449;-60
2022/05/18 13:43:17;;;;;;;2.40;2.20;;;27.90;53.80;;;;;;4955333;28;20778;-61
2022/05/18 13:45:56;;;;;;;1.87;1.77;;;27.90;54.30;;;;;;4964781;28;20430;-60
2022/05/18 13:48:24;;;;;;;1.83;1.73;;;27.90;54.60;;;;;;4973918;28;20779;-60
2022/05/18 13:50:54;;;;;;;8.03;1.60;;;27.90;54.20;;;;;;4973206;28;20394;-59
2022/05/18 13:53:20;;;;;;;1.90;1.80;;;27.90;54.10;;;;;;4973476;28;20415;-60
2022/05/18 13:55:48;;;;;;;1.60;1.47;;;28.00;54.40;;;;;;4973666;28;20413;-60
2022/05/18 13:58:20;;;;;;;1.20;1.20;;;28.00;53.20;;;;;;4973547;28;20186;-60
2022/05/18 14:00:59;;;;;;;1.30;1.20;;;28.00;52.70;;;;;;4973825;28;20438;-60
2022/05/18 14:03:30;;;;;;;1.80;1.40;;;28.00;51.50;;;;;;4972694;28;20522;-60
2022/05/18 14:06:02;;;;;;;1.37;1.27;;;28.00;50.90;;;;;;4973535;28;20523;-60
2022/05/18 14:08:33;;;;;;;1.60;1.50;;;28.00;51.90;;;;;;4972066;28;20863;-60
2022/05/18 14:11:01;;;;;;;2.33;2.13;;;27.90;53.10;;;;;;4973877;28;20513;-59
2022/05/18 14:13:28;;;;;;;1.37;1.37;;;27.90;54.90;;;;;;4973200;28;20442;-60
2022/05/18 14:15:55;;;;;;;1.43;1.33;;;28.00;54.70;;;;;;4972636;28;20541;-60
2022/05/18 14:18:44;;;;;;;1.90;1.80;;;28.00;53.30;;;;;;4966994;28;20407;-61
2022/05/18 14:21:13;;;;;;;1.43;1.33;;;28.10;53.60;;;;;;4968474;28;20440;-61
2022/05/18 14:23:57;;;;;;;1.27;1.27;;;28.10;52.60;;;;;;4974101;28;20853;-60
2022/05/18 14:26:31;;;;;;;1.90;1.70;;;28.00;52.80;;;;;;4973059;28;20423;-61
2022/05/18 14:28:59;;;;;;;1.97;1.70;;;28.00;53.40;;;;;;4970296;28;20422;-59
2022/05/18 14:31:29;;;;;;;2.07;1.43;;;28.00;54.30;;;;;;4973103;28;20953;-59
2022/05/18 14:34:00;;;;;;;1.20;1.20;;;28.00;55.30;;;;;;4972817;28;20478;-59
2022/05/18 14:36:38;;;;;;;1.47;1.37;;;28.00;53.00;;;;;;4973387;28;20425;-60
2022/05/18 14:39:22;;;;;;;1.77;1.67;;;28.00;53.20;;;;;;4972815;28;20410;-59
2022/05/18 14:41:49;;;;;;;1.30;1.30;;;28.00;53.80;;;;;;4973317;28;20500;-60
2022/05/18 14:44:25;;;;;;;1.30;1.20;;;28.00;53.60;;;;;;4955950;28;20504;-60
2022/05/18 14:46:53;;;;;;;2.07;1.97;;;28.00;54.50;;;;;;4962034;28;20419;-60
2022/05/18 14:49:23;;;;;;;2.10;2.00;;;28.00;54.60;;;;;;4962866;28;20841;-60
2022/05/18 14:51:56;;;;;;;2.20;2.00;;;27.90;56.10;;;;;;4966616;28;20420;-62
2022/05/18 14:54:34;;;;;;;2.10;1.90;;;27.90;56.40;;;;;;4955487;28;20448;-60
2022/05/18 14:57:09;;;;;;;2.00;1.90;;;27.90;56.50;;;;;;4965763;28;20394;-60
2022/05/18 14:59:51;;;;;;;2.17;2.03;;;27.90;56.80;;;;;;4971760;28;20486;-60
2022/05/18 15:02:17;;;;;;;1.93;1.83;;;27.90;56.60;;;;;;4956268;28;20541;-59
2022/05/18 15:05:08;;;;;;;1.87;1.77;;;27.90;56.00;;;;;;4971476;28;20535;-61
2022/05/18 15:07:40;;;;;;;2.77;2.47;;;27.80;56.10;;;;;;4960853;28;20943;-60
2022/05/18 15:10:30;;;;;;;2.33;2.23;;;27.80;56.50;;;;;;4972159;28;20438;-58
2022/05/18 15:13:08;;;;;;;2.23;2.13;;;27.80;56.80;;;;;;4965225;28;20406;-60
2022/05/18 15:16:02;;;;;;;3.13;2.17;;;27.80;56.60;;;;;;4967476;28;20530;-60
2022/05/18 15:18:29;;;;;;;2.43;1.90;;;27.80;57.20;;;;;;4974363;28;20845;-62
2022/05/18 15:21:03;;;;;;;2.10;2.00;;;27.80;57.10;;;;;;4977166;28;20427;-60
2022/05/18 15:23:49;;;;;;;1.77;1.67;;;27.70;57.30;;;;;;4965752;28;20814;-59
2022/05/18 15:26:22;;;;;;;2.10;1.90;;;27.70;56.50;;;;;;4956312;28;20386;-61
2022/05/18 15:28:55;;;;;;;2.50;2.37;;;27.70;56.70;;;;;;4971981;28;20782;-61
2022/05/18 15:31:27;;;;;;;2.93;1.80;;;27.70;56.50;;;;;;4962644;28;20433;-59
2022/05/18 15:33:56;;;;;;;2.07;1.93;;;27.70;56.60;;;;;;4970375;28;20449;-59
2022/05/18 15:36:22;;;;;;;1.70;1.60;;;27.70;57.10;;;;;;4960545;28;20427;-60
2022/05/18 15:38:53;;;;;;;2.37;2.17;;;27.70;56.90;;;;;;4971561;28;20529;-61
2022/05/18 15:41:20;;;;;;;2.40;2.20;;;27.70;57.00;;;;;;4964129;28;20440;-61
2022/05/18 15:43:45;;;;;;;2.03;1.83;;;27.70;57.10;;;;;;4966061;28;20462;-60
2022/05/18 15:46:14;;;;;;;1.70;1.60;;;27.70;57.50;;;;;;4972134;28;20942;-59
2022/05/18 15:48:43;;;;;;;1.83;1.70;;;27.70;56.80;;;;;;4973155;28;20178;-60
2022/05/18 15:51:10;;;;;;;1.87;1.77;;;27.70;57.20;;;;;;4976697;28;20423;-60
2022/05/18 15:53:42;;;;;;;2.00;1.80;;;27.60;57.60;;;;;;4963939;28;20540;-59
2022/05/18 15:56:20;;;;;;;3.50;1.87;;;27.60;58.30;;;;;;4969286;28;20529;-58
2022/05/18 15:58:46;;;;;;;1.43;1.43;;;27.50;58.10;;;;;;4959372;28;20516;-60
2022/05/18 16:01:12;;;;;;;3.00;2.23;;;27.50;58.10;;;;;;4971607;28;20881;-60
2022/05/18 16:03:38;;;;;;;2.30;1.97;;;27.60;59.00;;;;;;4962355;28;20995;-60
2022/05/18 16:06:05;;;;;;;2.37;2.17;;;27.50;58.50;;;;;;4952048;28;20564;-60
2022/05/18 16:08:31;;;;;;;3.30;2.00;;;27.50;58.20;;;;;;4971933;28;20177;-60
2022/05/18 16:10:57;;;;;;;2.30;2.10;;;27.50;58.20;;;;;;4962395;28;20412;-60
2022/05/18 16:13:32;;;;;;;2.30;2.10;;;27.50;58.20;;;;;;4973399;28;20507;-60
2022/05/18 16:15:58;;;;;;;2.30;2.10;;;27.40;58.80;;;;;;4963499;28;20463;-60
2022/05/18 16:18:25;;;;;;;2.20;2.10;;;27.30;59.40;;;;;;4972397;28;20409;-60
2022/05/18 16:20:56;;;;;;;2.30;2.10;;;27.30;59.60;;;;;;4973979;28;20650;-60
2022/05/18 16:23:23;;;;;;;2.50;2.30;;;27.20;59.70;;;;;;4964649;28;20485;-60
2022/05/18 16:25:49;;;;;;;2.37;2.17;;;27.20;60.00;;;;;;4967332;28;20771;-61
2022/05/18 16:28:20;;;;;;;1.97;1.87;;;27.10;59.90;;;;;;4957352;28;20479;-57
2022/05/18 16:30:48;;;;;;;3.07;2.33;;;27.10;60.00;;;;;;4969823;28;20945;-60
2022/05/18 16:33:13;;;;;;;2.00;1.90;;;27.10;60.20;;;;;;4971755;28;20610;-61
2022/05/18 16:35:39;;;;;;;2.50;2.30;;;27.00;60.10;;;;;;4962597;28;20420;-60
2022/05/18 16:38:04;;;;;;;2.30;2.20;;;27.00;60.50;;;;;;4971478;28;20639;-60
2022/05/18 16:40:30;;;;;;;3.23;2.93;;;27.00;60.60;;;;;;4959999;28;20185;-60
2022/05/18 16:42:57;;;;;;;3.00;2.00;;;27.00;61.10;;;;;;4956135;28;20224;-59
2022/05/18 16:45:25;;;;;;;2.17;1.97;;;26.90;61.70;;;;;;4965281;28;20197;-61
2022/05/18 16:47:51;;;;;;;2.67;2.47;;;26.90;62.40;;;;;;4961514;28;20772;-60
2022/05/18 16:50:17;;;;;;;2.50;2.20;;;26.90;62.10;;;;;;4973223;28;20481;-60
2022/05/18 16:52:46;;;;;;;3.27;2.20;;;26.90;62.30;;;;;;4968531;28;20508;-60
2022/05/18 16:55:14;;;;;;;2.73;2.53;;;26.90;62.10;;;;;;4967851;28;20455;-60
2022/05/18 16:57:41;;;;;;;2.17;2.07;;;26.90;62.00;;;;;;4967145;28;20406;-61
2022/05/18 17:00:08;;;;;;;2.63;2.43;;;26.90;61.60;;;;;;4949635;29;20408;-61
2022/05/18 17:02:34;;;;;;;4.10;1.93;;;26.80;62.30;;;;;;4956896;28;20467;-62
2022/05/18 17:07:44;;;;;;;2.30;2.10;;;26.80;63.00;;;;;;4965305;28;20242;-61
2022/05/18 17:10:10;;;;;;;2.93;2.60;;;26.80;62.60;;;;;;4957287;28;20498;-61
2022/05/18 17:12:40;;;;;;;2.13;1.97;;;26.70;62.50;;;;;;4964456;28;20187;-63
2022/05/18 17:15:08;;;;;;;1.83;1.73;;;26.70;63.00;;;;;;4955580;28;20451;-62
2022/05/18 17:17:34;;;;;;;2.40;2.30;;;26.70;63.50;;;;;;4955917;29;20794;-62
2022/05/18 17:20:01;;;;;;;3.27;3.00;;;26.60;64.00;;;;;;4962637;28;20423;-64
2022/05/18 17:22:27;;;;;;;2.77;2.57;;;26.60;63.60;;;;;;4971565;28;20558;-63
2022/05/18 17:24:53;;;;;;;3.60;3.27;;;26.50;64.20;;;;;;4967587;28;20438;-61
2022/05/18 17:27:23;;;;;;;3.13;2.40;;;26.40;64.00;;;;;;4954829;29;20418;-62
2022/05/18 17:29:59;;;;;;;2.77;2.67;;;26.40;64.10;;;;;;4960203;28;20188;-62